NCAR-RAP Real-Time Weather Data

Output produced by METARs form (23 January 2018  15:43 UTC)
found at http://weather.rap.ucar.edu/surface/
 
RJTO 230700Z 25018G36KT 220V290 9999 -SHRA FEW015 SCT040 BKN060 10/M00 Q1006
RJTO 230600Z 25016G27KT 220V290 9999 FEW020 SCT050 BKN080 11/M01 Q1005
RJTO 230500Z 24018G30KT 210V270 9999 FEW030 11/M01 Q1004
RJTO 230400Z 25016G31KT 220V290 9999 FEW030 11/01 Q1005
RJTO 230300Z 25019G32KT 220V280 9999 FEW025 SCT035 11/03 Q1005
RJTO 230200Z 25017G33KT 210V280 9999 FEW025 SCT035 10/03 Q1006
RJTO 230100Z 25018G34KT 210V300 9999 FEW025 SCT035 10/04 Q1007
RJTO 230000Z 24015G26KT 210V290 9999 FEW020 SCT030 09/03 Q1008
RJTO 222300Z 25013G23KT 210V280 9999 FEW020 08/04 Q1007
RJTO 220709Z 02028G39KT 3500 -RASN BR FEW003 SCT004 BKN005 02/02 Q1011 RMK 1ST003 3ST004 5ST005 A2985
RJTO 220700Z 02026G38KT 3000 -RA BR FEW003 BKN005 BKN007 02/02 Q1011
RJTO 220636Z 03028G40KT 3500 -RA BR FEW004 BKN006 BKN009 03/02 Q1011 RMK 1ST004 5ST006 6ST009 A2987
RJTO 220619Z 03031KT 3000 -RA BR FEW004 BKN007 BKN009 03/02 Q1011 RMK 1ST004 5ST007 6ST009 A2986
RJTO 220600Z 02028G38KT 3500 -RA BR FEW003 BKN006 BKN009 03/02 Q1011
RJTO 220500Z 01023KT 4000 -RA BR FEW003 BKN005 BKN008 03/02 Q1012
RJTO 220433Z 03027KT 4000 RA BR FEW005 BKN008 BKN010 03/02 Q1012 RMK 1ST005 5ST008 6SC010 A2991 P/FR
RJTO 220422Z 03028KT 3500 RA BR FEW006 BKN009 BKN010 03/02 Q1013 RMK 1ST006 5ST009 6SC010 A2992 P/FR
RJTO 220400Z 03026KT 3000 RA BR FEW007 BKN009 BKN010 04/02 Q1014
RJTO 220341Z 03026G36KT 3000 RA BR FEW007 BKN009 BKN012 04/03 Q1014 RMK 1ST007 5ST009 6SC012 A2995
RJTO 220335Z 03027KT 4000 -RA BR FEW007 BKN009 BKN012 04/03 Q1014 RMK 1ST007 5ST009 6SC012 A2996
RJTO 220322Z 04023KT 5000 -RA BR FEW007 BKN009 BKN012 05/03 Q1014 RMK 1ST007 5ST009 6SC012 A2997
RJTO 220300Z 04022KT 4000 -RA BR FEW006 BKN008 BKN010 05/04 Q1014
RJTO 220243Z 03023G34KT 3500 -RA BR FEW006 BKN008 BKN010 05/04 Q1015 RMK 1ST006 5ST008 6SC010 A2998 P/FR
RJTO 220218Z 04023KT 3500 -RA BR FEW006 BKN009 BKN010 06/04 Q1016 RMK 1ST006 5ST009 6SC010 A3000
RJTO 220200Z 03024KT 4000 -RA BR FEW009 BKN010 BKN011 06/04 Q1016
RJTO 220100Z 03020KT 9999 -RA FEW011 BKN014 BKN016 07/04 Q1017
RJTO 220000Z 04019KT 9999 -RA FEW015 BKN020 07/03 Q1018
RJTO 212300Z 03017KT 9999 FEW020 BKN025 07/02 Q1019
RJTO 210700Z 25003KT 190V310 9999 FEW030 SCT045 11/02 Q1014
RJTO 210600Z 24004KT 180V320 9999 FEW030 SCT045 12/02 Q1014
RJTO 210500Z VRB03KT 9999 FEW030 SCT045 11/02 Q1014
RJTO 210400Z 04007KT 9999 FEW030 BKN/// 11/02 Q1014